Time;durP1;ratioP1;P1;durP2;ratioP2;P2;SDS_P1;SDS_P2;PMS_P1;PMS_P2;Temp;Humidity;BMP_temperature;BMP_pressure;BME280_temperature;BME280_humidity;BME280_pressure;Samples;Min_cycle;Max_cycle;Signal;HPM_P1;HPM_P2
2021/11/19 00:00:54;;;;;;;42.50;15.52;;;;;;;8.76;93.79;102663.50;5068727;28;20147;-73
2021/11/19 00:03:20;;;;;;;36.60;14.02;;;;;;;8.67;93.80;102666.69;5048620;28;20042;-74
2021/11/19 00:05:47;;;;;;;44.22;16.10;;;;;;;8.63;94.17;102665.22;5062864;28;20029;-73
2021/11/19 00:08:16;;;;;;;35.75;14.15;;;;;;;8.58;94.22;102666.31;5061681;28;20040;-74
2021/11/19 00:10:42;;;;;;;39.88;14.60;;;;;;;8.63;94.38;102667.81;5040372;28;20025;-74
2021/11/19 00:13:08;;;;;;;37.67;14.82;;;;;;;8.69;94.16;102663.06;5046284;28;20035;-73
2021/11/19 00:15:37;;;;;;;44.35;15.60;;;;;;;8.68;93.64;102660.56;5042894;28;20032;-72
2021/11/19 00:18:03;;;;;;;43.28;13.68;;;;;;;8.63;94.26;102660.88;5062372;28;20028;-71
2021/11/19 00:20:30;;;;;;;45.03;15.52;;;;;;;8.65;94.47;102661.59;5069140;28;20029;-73
2021/11/19 00:23:00;;;;;;;42.17;15.32;;;;;;;8.60;94.29;102653.31;5027778;28;20132;-72
2021/11/19 00:25:26;;;;;;;49.75;14.70;;;;;;;8.71;94.27;102655.22;5047805;28;20051;-71
2021/11/19 00:27:52;;;;;;;45.97;15.60;;;;;;;8.66;94.13;102646.91;5040218;28;20497;-72
2021/11/19 00:30:19;;;;;;;39.35;15.45;;;;;;;8.68;93.71;102647.63;5079378;28;20106;-72
2021/11/19 00:32:46;;;;;;;34.72;14.45;;;;;;;8.64;94.27;102652.16;5039381;28;20043;-73
2021/11/19 00:35:12;;;;;;;35.13;14.55;;;;;;;8.54;94.51;102656.28;5047284;28;20028;-72
2021/11/19 00:37:45;;;;;;;44.33;15.55;;;;;;;8.47;95.01;102653.25;5066947;28;20463;-72
2021/11/19 00:40:17;;;;;;;46.70;17.40;;;;;;;8.47;95.21;102652.41;5048105;28;20024;-72
2021/11/19 00:42:43;;;;;;;42.53;15.55;;;;;;;8.49;95.21;102650.56;5043034;28;20372;-72
2021/11/19 00:45:09;;;;;;;38.05;14.55;;;;;;;8.51;95.18;102648.72;5048454;28;20044;-72
2021/11/19 00:47:35;;;;;;;39.92;15.50;;;;;;;8.54;94.92;102646.75;5044514;28;20122;-72
2021/11/19 00:50:04;;;;;;;31.02;14.63;;;;;;;8.52;95.09;102650.38;5061065;28;20032;-75
2021/11/19 00:52:29;;;;;;;36.70;14.32;;;;;;;8.57;94.84;102651.75;5043919;28;20093;-72
2021/11/19 00:54:55;;;;;;;40.03;14.48;;;;;;;8.55;94.21;102655.34;5051763;28;20555;-75
2021/11/19 00:57:21;;;;;;;36.55;14.30;;;;;;;8.44;95.08;102650.03;5036911;28;20083;-72
2021/11/19 00:59:48;;;;;;;40.60;15.43;;;;;;;8.50;95.23;102657.41;5034776;28;20471;-72
2021/11/19 01:02:19;;;;;;;40.50;15.30;;;;;;;8.46;95.05;102664.53;5051351;28;20043;-73
2021/11/19 01:04:46;;;;;;;44.97;15.73;;;;;;;8.47;95.36;102662.75;5066534;28;20035;-72
2021/11/19 01:07:15;;;;;;;41.83;15.82;;;;;;;8.41;95.56;102660.53;5050185;28;20032;-74
2021/11/19 01:09:45;;;;;;;36.80;15.77;;;;;;;8.43;95.93;102656.13;5043316;28;20029;-72
2021/11/19 01:12:14;;;;;;;38.28;15.73;;;;;;;8.47;95.62;102662.75;5053143;28;20029;-72
2021/11/19 01:15:04;;;;;;;40.10;16.65;;;;;;;8.45;95.98;102662.03;5064190;28;20021;-71
2021/11/19 01:17:36;;;;;;;47.97;17.13;;;;;;;8.43;96.16;102664.72;5063105;28;20072;-72
2021/11/19 01:20:40;;;;;;;39.47;15.98;;;;;;;8.39;96.31;102655.47;5035978;28;20469;-73
2021/11/19 01:23:11;;;;;;;40.03;16.73;;;;;;;8.44;96.08;102668.13;4956746;28;20054;-73
2021/11/19 01:25:39;;;;;;;40.78;17.20;;;;;;;8.41;96.14;102669.13;4965080;28;20533;-74
2021/11/19 01:28:08;;;;;;;46.15;16.83;;;;;;;8.48;96.25;102667.03;4982549;28;20629;-72
2021/11/19 01:30:46;;;;;;;40.53;16.70;;;;;;;8.50;95.66;102666.00;4977865;28;20039;-72
2021/11/19 01:33:13;;;;;;;37.95;17.35;;;;;;;8.49;95.82;102664.31;5041075;28;20124;-71
2021/11/19 01:35:49;;;;;;;40.90;16.77;;;;;;;8.50;95.65;102671.16;5044567;28;20053;-72
2021/11/19 01:38:28;;;;;;;43.60;17.77;;;;;;;8.46;96.10;102667.13;5032211;28;20024;-74
2021/11/19 01:41:37;;;;;;;38.72;17.38;;;;;;;8.47;96.49;102673.94;5062211;28;20045;-73
2021/11/19 01:44:26;;;;;;;50.00;18.33;;;;;;;8.51;96.05;102664.22;5041281;28;20040;-72
2021/11/19 01:46:55;;;;;;;39.72;16.23;;;;;;;8.38;96.36;102664.97;5046109;28;20085;-72
2021/11/19 01:49:22;;;;;;;34.25;15.55;;;;;;;8.34;97.12;102673.00;5037679;28;20020;-72
2021/11/19 01:52:19;;;;;;;47.10;18.35;;;;;;;8.47;96.95;102673.09;5068457;28;20067;-73
2021/11/19 01:55:11;;;;;;;45.05;17.48;;;;;;;8.52;96.60;102671.88;5069256;28;20074;-72
2021/11/19 01:57:50;;;;;;;37.72;15.73;;;;;;;8.43;96.75;102672.47;5052512;28;20071;-74
2021/11/19 02:00:44;;;;;;;36.75;16.60;;;;;;;8.38;97.13;102670.16;5073140;28;20483;-71
2021/11/19 02:03:14;;;;;;;38.22;16.98;;;;;;;8.38;97.50;102671.88;5031329;28;20029;-72
2021/11/19 02:05:48;;;;;;;47.00;17.60;;;;;;;8.45;97.52;102674.97;5053393;28;20048;-72
2021/11/19 02:08:20;;;;;;;41.63;17.42;;;;;;;8.45;97.47;102673.19;5056826;28;20486;-72
2021/11/19 02:10:57;;;;;;;42.10;17.10;;;;;;;8.43;97.65;102672.47;5031292;28;20032;-74
2021/11/19 02:13:30;;;;;;;40.65;17.75;;;;;;;8.44;97.65;102668.13;5082323;28;20063;-74
2021/11/19 02:16:08;;;;;;;43.35;17.73;;;;;;;8.56;97.81;102664.78;5032974;28;20494;-72
2021/11/19 02:18:44;;;;;;;43.40;17.73;;;;;;;8.51;97.64;102671.97;5074559;28;20032;-73
2021/11/19 02:21:20;;;;;;;39.97;17.77;;;;;;;8.47;98.12;102673.09;5047622;28;20088;-72
2021/11/19 02:24:26;;;;;;;43.50;17.55;;;;;;;8.44;98.17;102678.47;5060851;28;20032;-72
2021/11/19 02:27:00;;;;;;;38.97;18.05;;;;;;;8.44;98.55;102683.63;5016574;28;20041;-74
2021/11/19 02:29:31;;;;;;;50.55;20.17;;;;;;;8.61;98.59;102680.84;5043245;28;20032;-72
2021/11/19 02:32:02;;;;;;;39.15;17.35;;;;;;;8.59;97.75;102672.34;5051829;28;20044;-72
2021/11/19 02:34:38;;;;;;;55.42;18.55;;;;;;;8.50;98.35;102671.16;5050954;28;20032;-72
2021/11/19 02:37:16;;;;;;;49.15;19.40;;;;;;;8.56;98.34;102672.53;5054369;28;20032;-73
2021/11/19 02:39:49;;;;;;;39.83;18.27;;;;;;;8.54;98.52;102676.97;5053173;28;20024;-72
2021/11/19 02:42:28;;;;;;;51.25;18.77;;;;;;;8.62;98.70;102674.72;5053633;28;20131;-72
2021/11/19 02:44:58;;;;;;;46.78;19.42;;;;;;;8.68;98.62;102674.34;5052873;28;20127;-74
2021/11/19 02:47:29;;;;;;;37.95;17.38;;;;;;;8.58;98.54;102661.16;5049698;28;20517;-72
2021/11/19 02:49:58;;;;;;;45.47;19.00;;;;;;;8.64;98.59;102669.44;5035090;28;20037;-73
2021/11/19 02:52:31;;;;;;;46.72;19.02;;;;;;;8.55;98.81;102668.28;5034403;28;20107;-72
2021/11/19 02:54:59;;;;;;;36.95;18.25;;;;;;;8.57;99.30;102651.75;5048811;28;20643;-72
2021/11/19 02:57:25;;;;;;;44.47;19.50;;;;;;;8.57;99.84;102656.09;5049177;28;20529;-72
2021/11/19 02:59:52;;;;;;;50.25;20.83;;;;;;;8.70;99.16;102658.72;5051912;28;20826;-72
2021/11/19 03:02:22;;;;;;;43.80;19.90;;;;;;;8.62;99.23;102659.19;5049943;28;20044;-72
2021/11/19 03:04:55;;;;;;;41.75;18.73;;;;;;;8.58;99.42;102661.16;5044474;28;20103;-72
2021/11/19 03:07:21;;;;;;;;;;;;;;;8.57;99.80;102659.50;5051790;28;20036;-72
2021/11/19 03:10:01;;;;;;;40.83;19.60;;;;;;;8.58;99.94;102662.91;5078687;28;20381;-72
2021/11/19 03:12:33;;;;;;;43.35;19.80;;;;;;;8.57;100.00;102653.50;5043345;28;20087;-72
2021/11/19 03:15:03;;;;;;;43.97;20.15;;;;;;;8.60;100.00;102657.66;5047651;28;20032;-72
2021/11/19 03:17:32;;;;;;;41.13;20.00;;;;;;;8.61;100.00;102651.53;5050285;28;20489;-72
2021/11/19 03:19:58;;;;;;;45.35;21.02;;;;;;;8.59;100.00;102659.41;5050207;28;20040;-75
2021/11/19 03:22:26;;;;;;;45.67;20.80;;;;;;;8.57;100.00;102663.84;5049335;28;20032;-72
2021/11/19 03:24:52;;;;;;;43.75;21.17;;;;;;;8.61;100.00;102657.56;5043321;28;20036;-72
2021/11/19 03:27:24;;;;;;;47.13;21.75;;;;;;;8.56;100.00;102652.66;5051992;28;20032;-72
2021/11/19 03:30:00;;;;;;;49.13;20.98;;;;;;;8.64;100.00;102657.34;5033977;28;20036;-72
2021/11/19 03:32:28;;;;;;;48.28;21.88;;;;;;;8.56;100.00;102651.84;5050201;28;20129;-71
2021/11/19 03:34:55;;;;;;;56.45;21.42;;;;;;;8.56;100.00;102650.06;5034828;28;20078;-72
2021/11/19 03:37:21;;;;;;;51.13;22.35;;;;;;;8.64;100.00;102647.00;5044796;28;20083;-72
2021/11/19 03:39:47;;;;;;;46.08;22.10;;;;;;;8.62;100.00;102641.09;5049607;28;20315;-72
2021/11/19 03:42:19;;;;;;;46.05;21.42;;;;;;;8.59;100.00;102638.72;5057538;28;20487;-72
2021/11/19 03:44:50;;;;;;;55.97;23.58;;;;;;;8.67;100.00;102628.72;5079161;28;20082;-72
2021/11/19 03:47:26;;;;;;;53.42;25.17;;;;;;;8.67;100.00;102640.81;5049541;28;20029;-71
2021/11/19 03:49:53;;;;;;;64.43;27.70;;;;;;;8.73;100.00;102638.66;5053409;28;20124;-72
2021/11/19 03:52:32;;;;;;;64.60;27.73;;;;;;;8.79;100.00;102644.38;5051191;28;20421;-72
2021/11/19 03:55:02;;;;;;;106.40;43.90;;;;;;;8.66;100.00;102650.31;5033178;28;20032;-74
2021/11/19 03:57:28;;;;;;;77.85;33.78;;;;;;;8.81;100.00;102651.09;5030665;28;20266;-73
2021/11/19 03:59:55;;;;;;;117.90;46.30;;;;;;;8.71;100.00;102648.28;5048405;28;20719;-71
2021/11/19 04:02:26;;;;;;;209.30;78.20;;;;;;;8.67;100.00;102658.94;5056661;28;20039;-73
2021/11/19 04:04:52;;;;;;;126.47;51.20;;;;;;;8.73;100.00;102653.34;5043370;28;20063;-72
2021/11/19 04:07:20;;;;;;;96.30;39.22;;;;;;;8.82;100.00;102654.53;5079818;28;20037;-73
2021/11/19 04:09:47;;;;;;;137.70;55.30;;;;;;;8.76;100.00;102656.56;5059289;28;20028;-72
2021/11/19 04:12:15;;;;;;;146.13;57.83;;;;;;;8.76;100.00;102660.94;5049686;28;20036;-73
2021/11/19 04:14:42;;;;;;;123.88;45.38;;;;;;;8.74;100.00;102655.84;5053543;28;20062;-73
2021/11/19 04:17:08;;;;;;;90.07;37.25;;;;;;;8.82;100.00;102657.94;5083125;28;20566;-72
2021/11/19 04:19:34;;;;;;;130.98;50.25;;;;;;;8.72;100.00;102662.03;5050610;28;20024;-72
2021/11/19 04:22:04;;;;;;;197.25;72.68;;;;;;;8.77;100.00;102657.41;5053160;28;20513;-72
2021/11/19 04:24:40;;;;;;;95.70;38.58;;;;;;;8.79;100.00;102654.72;5040705;28;20037;-72
2021/11/19 04:27:11;;;;;;;66.05;29.77;;;;;;;8.69;100.00;102644.97;5068535;28;20032;-72
2021/11/19 04:30:05;;;;;;;91.95;35.67;;;;;;;8.66;100.00;102649.50;5057308;28;20293;-73
2021/11/19 04:32:32;;;;;;;85.72;36.72;;;;;;;8.63;100.00;102649.72;5036329;28;20082;-74
2021/11/19 04:34:58;;;;;;;104.25;40.80;;;;;;;8.62;100.00;102658.38;5037828;28;20559;-72
2021/11/19 04:37:25;;;;;;;117.20;47.03;;;;;;;8.72;100.00;102657.69;5050363;28;20036;-74
2021/11/19 04:39:51;;;;;;;133.98;51.50;;;;;;;8.70;100.00;102662.16;5050194;28;20490;-76
2021/11/19 04:42:17;;;;;;;72.25;33.80;;;;;;;8.69;100.00;102657.06;5077454;28;20031;-72
2021/11/19 04:44:43;;;;;;;112.43;54.15;;;;;;;8.60;100.00;102665.41;5039782;28;20452;-74
2021/11/19 04:47:09;;;;;;;67.82;34.40;;;;;;;8.70;100.00;102661.28;5052255;28;20066;-74
2021/11/19 04:49:35;;;;;;;59.28;25.98;;;;;;;8.62;100.00;102666.97;5052788;28;20075;-74
2021/11/19 04:52:05;;;;;;;60.08;25.20;;;;;;;8.71;100.00;102662.97;5030163;28;20028;-72
2021/11/19 04:54:32;;;;;;;55.90;26.98;;;;;;;8.66;100.00;102665.00;5028394;28;20085;-73
2021/11/19 04:56:58;;;;;;;59.88;24.92;;;;;;;8.82;100.00;102657.94;5048851;28;20032;-72
2021/11/19 04:59:24;;;;;;;57.92;26.02;;;;;;;8.87;100.00;102660.22;5048449;28;20482;-74
2021/11/19 05:01:54;;;;;;;57.00;25.92;;;;;;;8.77;100.00;102652.22;5047280;28;20032;-72
2021/11/19 05:04:38;;;;;;;49.70;24.42;;;;;;;8.73;100.00;102661.09;5055592;28;20097;-74
2021/11/19 05:07:04;;;;;;;55.42;26.00;;;;;;;8.82;100.00;102657.94;5056492;28;20036;-72
2021/11/19 05:09:31;;;;;;;52.97;25.35;;;;;;;8.72;100.00;102654.25;5035383;28;20059;-72
2021/11/19 05:12:05;;;;;;;53.03;24.33;;;;;;;8.68;100.00;102652.81;5051297;28;20028;-72
2021/11/19 05:14:33;;;;;;;61.42;24.85;;;;;;;8.70;100.00;102653.53;5052207;28;20043;-73
2021/11/19 05:17:02;;;;;;;55.50;25.63;;;;;;;8.79;100.00;102654.72;5052167;28;20043;-72
2021/11/19 05:19:27;;;;;;;54.75;25.40;;;;;;;8.79;100.00;102654.72;5076885;28;20037;-72
2021/11/19 05:21:54;;;;;;;55.63;26.20;;;;;;;8.74;100.00;102652.44;5050965;28;20037;-71
2021/11/19 05:24:20;;;;;;;54.00;26.45;;;;;;;8.75;100.00;102654.06;5038963;28;20410;-72
2021/11/19 05:26:47;;;;;;;56.83;25.15;;;;;;;8.69;100.00;102662.25;5048225;28;20302;-72
2021/11/19 05:29:15;;;;;;;61.97;26.92;;;;;;;8.65;100.00;102653.84;5048556;28;20028;-74
2021/11/19 05:31:42;;;;;;;55.10;26.33;;;;;;;8.65;100.00;102655.59;5048711;28;20031;-72
2021/11/19 05:34:09;;;;;;;56.03;27.52;;;;;;;8.82;100.00;102657.94;5047293;28;20032;-75
2021/11/19 05:36:35;;;;;;;57.10;26.05;;;;;;;8.82;100.00;102659.69;5046965;28;20577;-74
2021/11/19 05:39:01;;;;;;;53.47;25.55;;;;;;;8.81;100.00;102652.84;5071065;28;20043;-74
2021/11/19 05:41:28;;;;;;;57.05;26.33;;;;;;;8.84;100.00;102653.50;5047016;28;20029;-71
2021/11/19 05:43:55;;;;;;;57.25;26.42;;;;;;;8.82;100.00;102650.16;5046533;28;20098;-74
2021/11/19 05:46:41;;;;;;;57.40;25.40;;;;;;;8.86;100.00;102658.56;5058415;28;20521;-74
2021/11/19 05:49:16;;;;;;;60.13;27.00;;;;;;;8.91;100.00;102659.94;5057741;28;20033;-71
2021/11/19 05:51:43;;;;;;;54.45;25.70;;;;;;;8.81;100.00;102658.84;5049346;28;20028;-71
2021/11/19 05:54:13;;;;;;;66.65;27.23;;;;;;;8.89;100.00;102659.19;5051660;28;20055;-74
2021/11/19 05:56:39;;;;;;;57.63;25.50;;;;;;;8.84;100.00;102663.84;5065493;28;20036;-73
2021/11/19 05:59:08;;;;;;;52.60;27.33;;;;;;;8.95;100.00;102663.16;5053194;28;20123;-72
2021/11/19 06:02:07;;;;;;;47.40;24.60;;;;;;;8.85;100.00;102662.06;5065481;28;20074;-72
2021/11/19 06:04:44;;;;;;;52.28;25.55;;;;;;;8.75;100.00;102662.66;5046946;28;20491;-72
2021/11/19 06:07:25;;;;;;;55.10;25.73;;;;;;;8.90;100.00;102662.59;5064443;28;20498;-72
2021/11/19 06:09:51;;;;;;;52.47;24.17;;;;;;;8.88;100.00;102669.63;5048692;28;21338;-72
2021/11/19 06:12:31;;;;;;;57.30;24.75;;;;;;;8.84;100.00;102665.59;5044394;28;20021;-71
2021/11/19 06:15:05;;;;;;;58.05;25.67;;;;;;;8.87;100.00;102662.78;5060542;28;20052;-72
2021/11/19 06:17:37;;;;;;;48.00;24.05;;;;;;;8.86;100.00;102663.75;5032545;28;20078;-72
2021/11/19 06:20:22;;;;;;;53.53;25.75;;;;;;;8.80;100.00;102669.28;5052883;28;20024;-71
2021/11/19 06:22:57;;;;;;;50.72;24.42;;;;;;;8.88;100.00;102669.63;5024215;28;20028;-74
2021/11/19 06:25:26;;;;;;;54.25;24.90;;;;;;;8.84;100.00;102669.00;5031438;28;20033;-72
2021/11/19 06:27:54;;;;;;;48.78;23.27;;;;;;;8.82;100.00;102677.81;5028093;28;20044;-73
2021/11/19 06:30:23;;;;;;;47.28;23.95;;;;;;;8.92;100.00;102668.50;5046370;28;20036;-72
2021/11/19 06:32:49;;;;;;;50.45;24.05;;;;;;;8.93;100.00;102671.00;5048922;28;20029;-72
2021/11/19 06:35:16;;;;;;;49.40;24.05;;;;;;;8.88;100.00;102669.63;5051629;28;20033;-72
2021/11/19 06:37:42;;;;;;;45.47;22.75;;;;;;;8.86;100.00;102677.50;5044387;28;20119;-72
2021/11/19 06:40:19;;;;;;;53.97;25.48;;;;;;;8.84;100.00;102676.78;5051799;28;20032;-72
2021/11/19 06:43:15;;;;;;;51.65;23.48;;;;;;;8.88;100.00;102688.56;5058044;28;20052;-72
2021/11/19 06:46:01;;;;;;;53.47;23.88;;;;;;;8.90;100.00;102693.66;5065240;28;20110;-72
2021/11/19 06:48:41;;;;;;;55.45;23.10;;;;;;;8.84;100.00;102687.13;5048147;28;20134;-72
2021/11/19 06:51:25;;;;;;;49.38;23.50;;;;;;;8.87;100.00;102697.28;5048118;28;20024;-72
2021/11/19 06:54:03;;;;;;;58.88;24.98;;;;;;;8.82;100.00;102696.75;5065176;28;20821;-75
2021/11/19 06:57:01;;;;;;;45.25;23.70;;;;;;;8.84;100.00;102704.41;5067956;28;20052;-74
2021/11/19 06:59:33;;;;;;;54.13;24.73;;;;;;;8.84;100.00;102694.88;5063567;28;20054;-74
2021/11/19 07:02:01;;;;;;;45.70;23.50;;;;;;;8.77;100.00;102701.38;5053043;28;20037;-74
2021/11/19 07:04:28;;;;;;;49.28;24.25;;;;;;;8.75;100.00;102705.81;5054106;28;20056;-74
2021/11/19 07:06:53;;;;;;;50.05;23.65;;;;;;;8.83;100.00;102705.31;5048078;28;20029;-74
2021/11/19 07:09:23;;;;;;;54.20;24.75;;;;;;;8.87;100.00;102705.03;5052524;28;20044;-74
2021/11/19 07:11:50;;;;;;;54.25;25.73;;;;;;;8.85;100.00;102711.22;5065360;28;20479;-74
2021/11/19 07:14:17;;;;;;;56.50;24.92;;;;;;;8.76;100.00;102716.06;5051661;28;20040;-74
2021/11/19 07:16:43;;;;;;;55.72;26.83;;;;;;;8.91;100.00;102714.25;5050473;28;20032;-75
2021/11/19 07:19:11;;;;;;;51.75;24.73;;;;;;;8.91;100.00;102716.00;5060963;28;20209;-73
2021/11/19 07:21:40;;;;;;;51.83;25.17;;;;;;;8.94;100.00;102710.63;5043269;28;20029;-74
2021/11/19 07:24:10;;;;;;;57.55;26.10;;;;;;;8.93;100.00;102714.16;5047234;28;20059;-74
2021/11/19 07:26:40;;;;;;;51.38;24.98;;;;;;;9.03;100.00;102704.88;5042637;28;20067;-75
2021/11/19 07:29:06;;;;;;;50.38;24.23;;;;;;;9.06;100.00;102709.84;5048815;28;20039;-75
2021/11/19 07:31:51;;;;;;;54.92;25.02;;;;;;;9.03;100.00;102711.81;5068077;28;20128;-74
2021/11/19 07:34:44;;;;;;;48.28;22.90;;;;;;;9.04;100.00;102706.53;5026365;28;20039;-74
2021/11/19 07:37:27;;;;;;;53.90;24.73;;;;;;;8.98;100.00;102717.25;5066123;28;20560;-74
2021/11/19 07:40:21;;;;;;;52.63;24.50;;;;;;;8.98;100.00;102717.25;5015848;28;20040;-74
2021/11/19 07:43:05;;;;;;;50.10;24.52;;;;;;;8.98;100.00;102719.84;5060130;28;20044;-74
2021/11/19 07:45:37;;;;;;;46.20;23.38;;;;;;;8.99;100.00;102718.94;5050282;28;20036;-74
2021/11/19 07:48:34;;;;;;;53.28;24.35;;;;;;;9.01;100.00;102717.06;5043303;28;20044;-75
2021/11/19 07:51:05;;;;;;;52.50;24.70;;;;;;;9.06;100.00;102729.72;5048441;28;20033;-74
2021/11/19 07:53:32;;;;;;;47.72;23.27;;;;;;;9.11;100.00;102733.66;5052995;28;20390;-74
2021/11/19 07:55:59;;;;;;;51.38;24.83;;;;;;;9.06;100.00;102740.06;5028193;28;20090;-75
2021/11/19 07:58:27;;;;;;;54.63;26.30;;;;;;;9.07;100.00;102733.97;5052646;28;20048;-74
2021/11/19 08:00:55;;;;;;;51.08;25.70;;;;;;;9.06;100.00;102730.56;5048682;28;20047;-76
2021/11/19 08:03:21;;;;;;;53.75;25.63;;;;;;;9.15;100.00;102731.72;5048948;28;20425;-75
2021/11/19 08:05:51;;;;;;;50.70;24.25;;;;;;;9.11;100.00;102731.06;5070964;28;20487;-74
2021/11/19 08:08:28;;;;;;;57.20;24.63;;;;;;;9.09;100.00;102730.34;5048911;28;20237;-74
2021/11/19 08:11:24;;;;;;;51.90;23.00;;;;;;;8.99;100.00;102738.81;5064126;28;20115;-74
2021/11/19 08:13:49;;;;;;;47.55;23.75;;;;;;;9.11;100.00;102741.41;5050326;28;20039;-74
2021/11/19 08:16:17;;;;;;;52.42;25.10;;;;;;;9.09;100.00;102740.69;5033255;28;20032;-74
2021/11/19 08:19:04;;;;;;;50.13;23.65;;;;;;;9.07;100.00;102734.78;5048458;28;20040;-74
2021/11/19 08:21:30;;;;;;;56.20;25.48;;;;;;;9.15;100.00;102736.88;5052832;28;20025;-75
2021/11/19 08:24:02;;;;;;;48.47;23.05;;;;;;;9.10;100.00;102739.78;5052468;28;20025;-74
2021/11/19 08:26:54;;;;;;;49.67;24.30;;;;;;;9.15;100.00;102737.72;5067404;28;20028;-76
2021/11/19 08:29:26;;;;;;;48.35;23.85;;;;;;;9.17;100.00;102732.44;5052378;28;20448;-73
2021/11/19 08:31:54;;;;;;;48.65;23.70;;;;;;;9.14;100.00;102732.66;5045341;28;20033;-74
2021/11/19 08:34:20;;;;;;;49.00;23.77;;;;;;;9.09;100.00;102740.69;5037420;28;20044;-74
2021/11/19 08:36:46;;;;;;;52.17;25.25;;;;;;;9.19;100.00;102745.28;5050404;28;20032;-74
2021/11/19 08:39:14;;;;;;;53.25;24.58;;;;;;;9.15;100.00;102735.16;5030537;28;20482;-74
2021/11/19 08:41:40;;;;;;;50.15;24.27;;;;;;;9.18;100.00;102731.50;5064913;28;20068;-73
2021/11/19 08:44:10;;;;;;;50.53;24.38;;;;;;;9.23;100.00;102739.81;5049853;28;20062;-74
2021/11/19 08:46:39;;;;;;;46.92;22.63;;;;;;;9.18;100.00;102739.28;5035160;28;20487;-74
2021/11/19 08:49:08;;;;;;;46.72;23.48;;;;;;;9.27;100.00;102743.88;5041980;28;20295;-73
2021/11/19 08:51:35;;;;;;;44.03;22.42;;;;;;;9.29;100.00;102742.00;5063023;28;20024;-73
2021/11/19 08:54:04;;;;;;;51.67;24.17;;;;;;;9.26;100.00;102739.59;5048466;28;20085;-74
2021/11/19 08:56:31;;;;;;;49.38;22.30;;;;;;;9.19;100.00;102740.09;5058930;28;20083;-74
2021/11/19 08:58:58;;;;;;;46.40;24.38;;;;;;;9.28;100.00;102732.56;5050240;28;20478;-73
2021/11/19 09:01:24;;;;;;;51.65;24.85;;;;;;;9.27;100.00;102728.34;5048098;28;20271;-74
2021/11/19 09:03:50;;;;;;;49.67;24.48;;;;;;;9.42;100.00;102736.84;5079458;28;20037;-73
2021/11/19 09:06:21;;;;;;;44.95;23.30;;;;;;;9.36;100.00;102739.81;5076159;28;20048;-73
2021/11/19 09:08:47;;;;;;;46.03;23.33;;;;;;;9.33;100.00;102734.88;5047748;28;20028;-74
2021/11/19 09:11:16;;;;;;;42.38;21.35;;;;;;;9.40;100.00;102735.28;5065896;28;20051;-74
2021/11/19 09:13:45;;;;;;;49.40;24.75;;;;;;;9.30;100.00;102735.06;5057666;28;20124;-75
2021/11/19 09:16:13;;;;;;;45.20;21.67;;;;;;;9.43;100.00;102732.50;5044638;28;20033;-74
2021/11/19 09:19:04;;;;;;;46.63;22.63;;;;;;;9.39;100.00;102736.22;5028224;28;20374;-74
2021/11/19 09:21:38;;;;;;;45.88;22.58;;;;;;;9.41;100.00;102734.38;5061208;28;20467;-74
2021/11/19 09:24:29;;;;;;;44.58;22.00;;;;;;;9.36;100.00;102737.25;5060381;28;20115;-74
2021/11/19 09:27:17;;;;;;;47.40;23.67;;;;;;;9.49;100.00;102756.25;5045892;28;20082;-74
2021/11/19 09:29:48;;;;;;;52.28;22.88;;;;;;;9.54;100.00;102745.56;5047574;28;20588;-74
2021/11/19 09:32:15;;;;;;;42.95;22.67;;;;;;;9.51;100.00;102753.53;5041563;28;20025;-75
2021/11/19 09:34:44;;;;;;;42.88;21.27;;;;;;;9.48;100.00;102756.34;5036882;28;20032;-74
2021/11/19 09:37:17;;;;;;;47.53;23.60;;;;;;;9.50;100.00;102751.88;5060220;28;20040;-74
2021/11/19 09:39:45;;;;;;;48.50;22.95;;;;;;;9.48;100.00;102758.94;5035569;28;20518;-74
2021/11/19 09:42:28;;;;;;;49.20;23.83;;;;;;;9.52;100.00;102752.59;5075645;28;20029;-74
2021/11/19 09:45:21;;;;;;;54.33;24.63;;;;;;;9.58;100.00;102746.19;5072505;28;20036;-74
2021/11/19 09:48:28;;;;;;;49.03;24.73;;;;;;;9.46;100.00;102747.84;5061962;28;20404;-74
2021/11/19 09:51:17;;;;;;;49.30;23.75;;;;;;;9.53;100.00;102749.94;5044067;28;20033;-74
2021/11/19 09:54:07;;;;;;;47.35;23.20;;;;;;;9.47;100.00;102752.06;5042429;28;20032;-74
2021/11/19 09:57:21;;;;;;;51.13;23.10;;;;;;;9.62;100.00;102752.81;5038576;28;20086;-75
2021/11/19 10:00:15;;;;;;;49.38;24.08;;;;;;;9.57;100.00;102745.38;5043249;28;20131;-74
2021/11/19 10:03:00;;;;;;;;;;;;;;;9.53;100.00;102755.09;5034620;28;20398;-74
2021/11/19 10:05:55;;;;;;;66.03;25.33;;;;;;;9.50;100.00;102752.72;5054230;28;19916;-74
2021/11/19 10:08:37;;;;;;;53.70;24.75;;;;;;;9.62;100.00;102745.88;5062820;28;20028;-75
2021/11/19 10:11:21;;;;;;;48.72;24.27;;;;;;;9.64;100.00;102750.97;5042538;28;20033;-74
2021/11/19 10:14:01;;;;;;;54.25;24.23;;;;;;;9.71;100.00;102752.22;5064136;28;20029;-74
2021/11/19 10:16:32;;;;;;;52.60;23.77;;;;;;;9.66;100.00;102754.28;5062557;28;20127;-74
2021/11/19 10:19:16;;;;;;;53.75;23.33;;;;;;;9.68;100.00;102748.06;5070776;28;20497;-75
2021/11/19 10:21:54;;;;;;;50.15;23.55;;;;;;;9.66;100.00;102756.88;5053262;28;20041;-75
2021/11/19 10:24:38;;;;;;;52.42;24.15;;;;;;;9.63;100.00;102757.09;5070223;28;20482;-74
2021/11/19 10:27:11;;;;;;;54.42;24.15;;;;;;;9.63;100.00;102759.69;5061148;28;20155;-74
2021/11/19 10:29:43;;;;;;;56.45;24.17;;;;;;;9.69;100.00;102757.50;5051482;28;20450;-75
2021/11/19 10:32:12;;;;;;;53.20;23.20;;;;;;;9.78;100.00;102757.81;5069155;28;20060;-74
2021/11/19 10:34:47;;;;;;;53.08;23.70;;;;;;;9.77;100.00;102758.75;5068821;28;20271;-75
2021/11/19 10:37:53;;;;;;;52.65;23.92;;;;;;;9.78;100.00;102758.66;5063185;28;20024;-74
2021/11/19 10:40:49;;;;;;;50.45;23.17;;;;;;;9.84;100.00;102760.00;5032872;28;20099;-74
2021/11/19 10:43:25;;;;;;;54.95;22.70;;;;;;;9.70;100.00;102760.91;5073357;28;20094;-74
2021/11/19 10:46:00;;;;;;;51.70;22.63;;;;;;;9.82;100.00;102759.28;5048458;28;20040;-74
2021/11/19 10:48:51;;;;;;;51.00;22.77;;;;;;;9.87;100.00;102758.03;5063449;28;20051;-74
2021/11/19 10:51:32;;;;;;;48.20;21.73;;;;;;;9.77;100.00;102756.16;5062699;28;20511;-75
2021/11/19 10:54:31;;;;;;;57.42;23.48;;;;;;;9.75;100.00;102756.25;5065146;28;20487;-74
2021/11/19 10:57:19;;;;;;;46.05;22.23;;;;;;;9.85;100.00;102753.88;5056529;28;20477;-74
2021/11/19 11:00:10;;;;;;;45.72;20.90;;;;;;;9.82;100.00;102760.09;5074986;28;20430;-74
2021/11/19 11:02:50;;;;;;;45.55;21.98;;;;;;;9.85;100.00;102759.03;5042458;28;20040;-74
2021/11/19 11:05:28;;;;;;;46.85;21.42;;;;;;;9.81;100.00;102752.41;5065179;28;20435;-74
2021/11/19 11:08:05;;;;;;;46.17;21.83;;;;;;;9.83;100.00;102746.22;5060380;28;20040;-74
2021/11/19 11:10:38;;;;;;;49.60;20.85;;;;;;;9.93;100.00;102747.25;5050650;28;20024;-74
2021/11/19 11:13:19;;;;;;;;;;;;;;;9.98;100.00;102743.50;5052527;28;20085;-74
2021/11/19 11:16:10;;;;;;;48.22;22.48;;;;;;;10.12;100.00;102740.81;5067088;28;20282;-74
2021/11/19 11:18:54;;;;;;;46.97;21.15;;;;;;;10.04;99.90;102743.06;5049687;28;20514;-75
2021/11/19 11:21:26;;;;;;;48.80;21.77;;;;;;;9.97;100.00;102736.69;5067249;28;20044;-75
2021/11/19 11:24:17;;;;;;;45.47;22.50;;;;;;;10.01;99.63;102738.13;5061943;28;20044;-74
2021/11/19 11:26:51;;;;;;;48.80;23.42;;;;;;;9.97;100.00;102737.50;5066192;28;20486;-74
2021/11/19 11:29:16;;;;;;;51.05;22.30;;;;;;;10.06;100.00;102736.88;5052978;28;20506;-75
2021/11/19 11:32:03;;;;;;;43.65;21.17;;;;;;;9.96;100.00;102733.22;5067504;28;20182;-75
2021/11/19 11:34:44;;;;;;;50.90;21.27;;;;;;;10.13;100.00;102734.66;5048377;28;20028;-75
2021/11/19 11:37:13;;;;;;;47.92;23.85;;;;;;;10.20;99.57;102735.09;5052662;28;20054;-74
2021/11/19 11:39:48;;;;;;;46.38;22.58;;;;;;;10.12;99.20;102738.22;5050310;28;20032;-75
2021/11/19 11:42:23;;;;;;;50.70;22.58;;;;;;;10.25;98.58;102736.44;5046012;28;20052;-75